Time;durP1;ratioP1;P1;durP2;ratioP2;P2;SDS_P1;SDS_P2;PMS_P1;PMS_P2;Temp;Humidity;BMP_temperature;BMP_pressure;BME280_temperature;BME280_humidity;BME280_pressure;Samples;Min_cycle;Max_cycle;Signal;HPM_P1;HPM_P2
2022/06/14 00:00:53;;;;;;;6.70;2.97;;;;;;;-145.18;100.00;46646.72;4932509;29;20051;-78
2022/06/14 00:03:23;;;;;;;7.50;2.37;;;;;;;-145.18;100.00;46646.72;4933036;29;20281;-78
2022/06/14 00:05:49;;;;;;;15.77;3.13;;;;;;;-145.18;100.00;46648.69;4932184;29;20044;-80
2022/06/14 00:08:15;;;;;;;11.67;3.07;;;;;;;-145.18;100.00;46650.63;4933057;29;20286;-80
2022/06/14 00:10:41;;;;;;;11.97;3.23;;;;;;;-145.18;100.00;46654.53;4932596;29;20039;-80
2022/06/14 00:13:08;;;;;;;8.43;2.13;;;;;;;-145.18;100.00;46648.69;4932729;29;20083;-79
2022/06/14 00:15:34;;;;;;;10.90;2.47;;;;;;;-145.18;100.00;46648.69;4932698;29;20628;-79
2022/06/14 00:17:59;;;;;;;7.47;2.33;;;;;;;-145.18;100.00;46644.78;4932557;29;20292;-79
2022/06/14 00:20:25;;;;;;;8.10;2.73;;;;;;;-145.18;100.00;46648.69;4932675;29;20044;-79
2022/06/14 00:22:50;;;;;;;9.10;2.13;;;;;;;-145.18;100.00;46648.69;4932407;29;20028;-80
2022/06/14 00:25:37;;;;;;;12.03;2.47;;;;;;;-145.18;100.00;46648.69;4933115;29;20035;-80
2022/06/14 00:28:04;;;;;;;8.07;2.30;;;;;;;-145.18;100.00;46642.81;4932413;29;20032;-80
2022/06/14 00:30:30;;;;;;;6.27;2.60;;;;;;;-145.18;100.00;46642.81;4932743;29;20771;-80
2022/06/14 00:32:56;;;;;;;2.23;1.57;;;;;;;-145.18;100.00;46642.81;4932390;29;20273;-80
2022/06/14 00:35:21;;;;;;;7.00;2.90;;;;;;;-145.18;100.00;46636.94;4932717;29;20360;-80
2022/06/14 00:37:47;;;;;;;19.17;4.13;;;;;;;-145.18;100.00;46642.81;4932239;29;20047;-79
2022/06/14 00:40:16;;;;;;;11.70;3.77;;;;;;;-145.18;100.00;46638.91;4932496;29;20032;-80
2022/06/14 00:42:43;;;;;;;10.50;3.47;;;;;;;-145.18;100.00;46640.88;4932185;29;20040;-79
2022/06/14 00:45:08;;;;;;;12.57;3.77;;;;;;;-145.18;100.00;46638.91;4932262;29;20360;-79
2022/06/14 00:48:02;;;;;;;6.67;3.07;;;;;;;-145.18;100.00;46640.88;4932269;29;20302;-79
2022/06/14 00:50:34;;;;;;;5.27;2.23;;;;;;;-145.18;100.00;46644.78;4931374;29;20464;-79
2022/06/14 00:53:25;;;;;;;10.30;3.00;;;;;;;-145.18;100.00;46640.88;4932115;29;20313;-79
2022/06/14 00:55:55;;;;;;;10.67;3.43;;;;;;;-145.18;100.00;46644.78;4912560;29;20298;-79
2022/06/14 00:58:25;;;;;;;6.00;3.20;;;;;;;-145.18;100.00;46640.88;4932565;29;20810;-79
2022/06/14 01:00:54;;;;;;;17.07;4.30;;;;;;;-145.18;100.00;46676.03;4931828;29;20787;-79
2022/06/14 01:03:22;;;;;;;10.10;3.03;;;;;;;-145.18;100.00;46644.78;4932313;29;20378;-78
2022/06/14 01:06:08;;;;;;;5.80;2.73;;;;;;;-145.18;100.00;46640.88;4931966;29;20832;-79
2022/06/14 01:08:42;;;;;;;9.43;2.78;;;;;;;-145.18;100.00;46644.78;4932330;29;20322;-79
2022/06/14 01:11:13;;;;;;;11.13;2.97;;;;;;;-145.18;100.00;46646.72;4935584;29;20046;-80
2022/06/14 01:13:40;;;;;;;8.87;3.10;;;;;;;-145.18;100.00;46644.78;4935967;29;20281;-79
2022/06/14 01:16:08;;;;;;;10.37;3.10;;;;;;;-145.18;100.00;46638.91;4935202;29;20330;-79
2022/06/14 01:18:34;;;;;;;8.13;3.40;;;;;;;-145.18;100.00;46638.91;4935871;29;20270;-78
2022/06/14 01:20:59;;;;;;;11.87;4.47;;;;;;;-145.18;100.00;46642.81;4935651;29;20286;-78
2022/06/14 01:23:24;;;;;;;7.73;3.00;;;;;;;-145.18;100.00;46640.88;4935706;29;20369;-78
2022/06/14 01:25:54;;;;;;;11.43;3.30;;;;;;;-145.18;100.00;46638.91;4935247;29;20039;-78
2022/06/14 01:28:23;;;;;;;10.17;2.67;;;;;;;-145.18;100.00;46638.91;4935816;29;20043;-78
2022/06/14 01:30:52;;;;;;;8.70;2.67;;;;;;;-145.18;100.00;46642.81;4935341;29;20345;-78
2022/06/14 01:33:26;;;;;;;8.40;2.97;;;;;;;-145.18;100.00;46642.81;4935775;29;20274;-78
2022/06/14 01:35:56;;;;;;;10.10;3.00;;;;;;;-145.18;100.00;46660.41;4935070;29;20297;-78
2022/06/14 01:38:22;;;;;;;6.80;3.50;;;;;;;-145.18;100.00;46640.88;4935665;29;20270;-78
2022/06/14 01:41:10;;;;;;;11.87;4.73;;;;;;;-145.18;100.00;46640.88;4935276;29;20332;-78
2022/06/14 01:44:04;;;;;;;10.47;3.30;;;;;;;-145.18;100.00;46660.41;4935348;29;20034;-77
2022/06/14 01:46:44;;;;;;;13.07;3.40;;;;;;;-145.18;100.00;46676.03;4935181;29;20266;-78
2022/06/14 01:52:50;;;;;;;8.37;3.73;;;;;;;-145.18;100.00;46636.94;4934865;29;20347;-77
2022/06/14 01:55:34;;;;;;;7.80;3.27;;;;;;;-145.18;100.00;46660.41;4935058;29;20353;-78
2022/06/14 01:58:17;;;;;;;5.73;2.90;;;;;;;-145.18;100.00;46638.91;4934857;29;20285;-78
2022/06/14 02:06:20;;;;;;;13.67;4.03;;;;;;;-145.18;100.00;46640.88;4988364;28;20509;-78
2022/06/14 02:09:06;;;;;;;9.37;2.87;;;;;;;-145.18;100.00;46676.03;4992112;28;20320;-78
2022/06/14 02:11:34;;;;;;;8.73;4.30;;;;;;;-145.18;100.00;46642.81;4978044;28;20799;-77
2022/06/14 02:14:12;;;;;;;9.27;3.63;;;;;;;-145.18;100.00;46636.94;4992022;28;20331;-77
2022/06/14 02:16:43;;;;;;;7.87;3.60;;;;;;;-145.18;100.00;46676.03;4992573;28;20790;-78
2022/06/14 02:19:20;;;;;;;13.53;3.83;;;;;;;-145.18;100.00;46638.91;4992476;28;20278;-78
2022/06/14 02:21:50;;;;;;;11.83;4.10;;;;;;;-145.18;100.00;46640.88;4991171;28;20988;-78
2022/06/14 02:24:27;;;;;;;8.57;3.43;;;;;;;-145.18;100.00;46640.88;4993037;28;20738;-78
2022/06/14 02:27:16;;;;;;;5.73;3.10;;;;;;;-145.18;100.00;46644.78;4991749;28;20300;-78
2022/06/14 02:29:53;;;;;;;8.30;3.70;;;;;;;-145.18;100.00;46640.88;4992457;28;20260;-78
2022/06/14 02:32:36;;;;;;;8.20;3.80;;;;;;;-145.18;100.00;46660.41;4992430;28;20245;-78
2022/06/14 02:35:28;;;;;;;11.17;4.23;;;;;;;-145.18;100.00;46638.91;4992289;28;20248;-78
2022/06/14 02:38:02;;;;;;;10.43;4.13;;;;;;;-145.18;100.00;46638.91;4991689;28;20352;-77
2022/06/14 02:40:35;;;;;;;9.37;3.93;;;;;;;-145.18;100.00;46638.91;4992316;28;20259;-77
2022/06/14 02:43:20;;;;;;;10.40;3.83;;;;;;;-145.18;100.00;46644.78;4991492;28;20680;-76
2022/06/14 02:46:00;;;;;;;13.93;4.77;;;;;;;-145.18;100.00;46642.81;4986852;28;20268;-76
2022/06/14 02:48:55;;;;;;;12.97;4.33;;;;;;;-145.18;100.00;46640.88;4990442;28;20268;-77
2022/06/14 02:51:26;;;;;;;7.70;3.60;;;;;;;-145.18;100.00;46648.69;4972701;28;20265;-77
2022/06/14 02:53:54;;;;;;;8.60;3.83;;;;;;;-145.18;100.00;46640.88;4971892;28;20781;-77
2022/06/14 02:56:31;;;;;;;15.27;5.07;;;;;;;-145.18;100.00;46638.91;4972779;28;20295;-76
2022/06/14 02:59:03;;;;;;;11.03;3.90;;;;;;;-145.18;100.00;46676.03;4972252;28;20256;-78
2022/06/14 03:01:55;;;;;;;20.93;5.23;;;;;;;-145.18;100.00;46638.91;4972673;28;20261;-79
2022/06/14 03:04:31;;;;;;;11.77;5.17;;;;;;;-145.18;100.00;46636.94;4972271;28;20285;-78
2022/06/14 03:07:11;;;;;;;8.63;4.33;;;;;;;-145.18;100.00;46638.91;4971742;28;20284;-79
2022/06/14 03:09:41;;;;;;;17.97;4.50;;;;;;;-145.18;100.00;46676.03;4972411;28;20281;-79
2022/06/14 03:12:40;;;;;;;7.40;3.77;;;;;;;-145.18;100.00;46676.03;4954729;28;20265;-78
2022/06/14 03:15:25;;;;;;;12.30;4.97;;;;;;;-145.18;100.00;46636.94;4956026;28;20272;-78
2022/06/14 03:18:04;;;;;;;10.40;4.80;;;;;;;-145.18;100.00;46640.88;4980565;28;20323;-78
2022/06/14 03:20:33;;;;;;;13.07;4.30;;;;;;;-145.18;100.00;46676.03;4991661;28;20264;-77
2022/06/14 03:23:31;;;;;;;7.33;3.93;;;;;;;-145.18;100.00;46640.88;4991219;28;20728;-76
2022/06/14 03:26:05;;;;;;;9.80;4.20;;;;;;;-145.18;100.00;46638.91;4922859;28;20276;-76
2022/06/14 03:28:40;;;;;;;11.38;4.07;;;;;;;-145.18;100.00;46676.03;4990880;28;20264;-77
2022/06/14 03:31:16;;;;;;;6.43;3.50;;;;;;;-145.18;100.00;46676.03;4977112;28;20435;-77
2022/06/14 03:33:49;;;;;;;6.90;3.77;;;;;;;-145.18;100.00;46677.97;4988447;28;20282;-77
2022/06/14 03:36:16;;;;;;;9.40;3.87;;;;;;;-145.18;100.00;46660.41;4990773;28;20294;-77
2022/06/14 03:38:54;;;;;;;12.43;4.33;;;;;;;-145.18;100.00;46638.91;4990778;28;20364;-76
2022/06/14 03:41:24;;;;;;;8.50;2.33;;;;;;;-145.18;100.00;46676.03;4985372;28;20267;-76
2022/06/14 03:43:52;;;;;;;7.30;2.37;;;;;;;-145.18;100.00;46636.94;4990187;28;20275;-77
2022/06/14 03:46:20;;;;;;;9.23;2.80;;;;;;;-145.18;100.00;46660.41;4990840;28;20295;-76
2022/06/14 03:48:50;;;;;;;9.03;2.90;;;;;;;-145.18;100.00;46640.88;4990114;28;20303;-76
2022/06/14 03:52:07;;;;;;;4.87;2.57;;;;;;;-145.18;100.00;46640.88;4990602;28;20621;-76
2022/06/14 03:54:59;;;;;;;6.20;2.42;;;;;;;-145.18;100.00;46640.88;4973350;28;20272;-76
2022/06/14 03:57:36;;;;;;;2.87;1.70;;;;;;;-145.18;100.00;46638.91;4989093;28;20038;-76
2022/06/14 04:00:13;;;;;;;2.90;1.47;;;;;;;-145.18;100.00;46636.94;4987168;28;20275;-77
2022/06/14 04:02:55;;;;;;;4.43;1.67;;;;;;;-145.18;100.00;46636.94;4989952;28;20283;-76
2022/06/14 04:05:34;;;;;;;5.40;1.80;;;;;;;-145.18;100.00;46638.91;4990517;28;20276;-76
2022/06/14 04:08:08;;;;;;;4.83;2.23;;;;;;;-145.18;100.00;46636.94;4990003;28;20284;-76
2022/06/14 04:10:42;;;;;;;6.77;2.70;;;;;;;-145.18;100.00;46636.94;4990168;28;20452;-76
2022/06/14 04:13:16;;;;;;;5.10;2.43;;;;;;;-145.18;100.00;46638.91;4990386;28;20282;-76
2022/06/14 04:15:55;;;;;;;4.77;2.97;;;;;;;-145.18;100.00;46636.94;4989920;28;20775;-78
2022/06/14 04:18:38;;;;;;;8.33;3.30;;;;;;;-145.18;100.00;46635.00;4981310;28;20428;-77
2022/06/14 04:21:34;;;;;;;5.80;3.00;;;;;;;-145.18;100.00;46640.88;4988196;28;20277;-77
2022/06/14 04:24:30;;;;;;;11.63;2.80;;;;;;;-145.18;100.00;46636.94;4990005;28;20323;-76
2022/06/14 04:27:09;;;;;;;11.88;3.95;;;;;;;-145.18;100.00;46636.94;4990236;28;20267;-77
2022/06/14 04:30:01;;;;;;;11.40;3.63;;;;;;;-145.18;100.00;46636.94;4990449;28;20038;-77
2022/06/14 04:32:32;;;;;;;18.70;4.23;;;;;;;-145.18;100.00;46635.00;4981477;28;20276;-77
2022/06/14 04:35:01;;;;;;;15.57;4.13;;;;;;;-145.18;100.00;46638.91;4989275;28;20264;-77
2022/06/14 04:37:47;;;;;;;10.23;3.53;;;;;;;-145.18;100.00;46635.00;4989429;28;20294;-77
2022/06/14 04:40:28;;;;;;;15.32;4.55;;;;;;;-145.18;100.00;46636.94;4990401;28;20307;-77
2022/06/14 04:43:06;;;;;;;11.03;4.87;;;;;;;-145.18;100.00;46633.06;4988759;28;20022;-77
2022/06/14 04:45:51;;;;;;;13.03;5.70;;;;;;;-145.18;100.00;46635.00;4975876;28;20314;-78
2022/06/14 04:48:26;;;;;;;10.80;4.75;;;;;;;-145.18;100.00;46638.91;4993134;28;20288;-78
2022/06/14 04:50:53;;;;;;;14.33;5.17;;;;;;;-145.18;100.00;46638.91;4994171;28;20483;-78
2022/06/14 04:53:27;;;;;;;12.67;4.73;;;;;;;-145.18;100.00;46636.94;4994139;28;20272;-78
2022/06/14 04:56:10;;;;;;;11.93;4.50;;;;;;;-145.18;100.00;46631.09;4994020;28;20268;-77
2022/06/14 04:58:50;;;;;;;11.33;4.43;;;;;;;-145.18;100.00;46631.09;4993800;28;20284;-77
2022/06/14 05:01:22;;;;;;;12.67;5.07;;;;;;;-145.18;100.00;46635.00;4994228;28;20729;-77
2022/06/14 05:03:54;;;;;;;15.43;5.23;;;;;;;-145.18;100.00;46631.09;4993736;28;20288;-77
2022/06/14 05:06:27;;;;;;;9.73;5.33;;;;;;;-145.18;100.00;46629.13;4993756;28;20291;-77
2022/06/14 05:09:01;;;;;;;16.23;5.50;;;;;;;-145.18;100.00;46629.13;4993150;28;20343;-77
2022/06/14 05:11:37;;;;;;;14.13;6.13;;;;;;;-145.18;100.00;46631.09;4994006;28;20296;-77
2022/06/14 05:14:08;;;;;;;;;;;;;;;-145.18;100.00;46627.19;4994109;28;20283;-78
2022/06/14 05:16:36;;;;;;;18.03;6.27;;;;;;;-145.18;100.00;46629.13;4993790;28;20421;-78
2022/06/14 05:19:10;;;;;;;15.87;6.10;;;;;;;-145.18;100.00;46633.06;4993573;28;20616;-78
2022/06/14 05:21:50;;;;;;;25.97;7.73;;;;;;;-145.18;100.00;46625.22;4993636;28;20354;-78
2022/06/14 05:24:16;;;;;;;15.53;5.80;;;;;;;-145.18;100.00;46627.19;4993332;28;20279;-78
2022/06/14 05:26:59;;;;;;;12.00;5.80;;;;;;;-145.18;100.00;46621.31;4972564;28;20046;-78
2022/06/14 05:29:39;;;;;;;21.20;6.33;;;;;;;-145.18;100.00;46625.22;4986804;28;20994;-77
2022/06/14 05:32:27;;;;;;;19.00;5.23;;;;;;;-145.18;100.00;46627.19;4987033;28;20971;-78
2022/06/14 05:35:05;;;;;;;18.93;5.87;;;;;;;-145.18;100.00;46625.22;4993018;28;20292;-77
2022/06/14 05:37:31;;;;;;;20.20;5.20;;;;;;;-145.18;100.00;46625.22;4982749;28;20031;-78
2022/06/14 05:40:08;;;;;;;15.80;6.33;;;;;;;-145.18;100.00;46625.22;4973929;28;20022;-78
2022/06/14 05:42:40;;;;;;;13.13;5.70;;;;;;;-145.18;100.00;46627.19;4973631;28;20027;-78
2022/06/14 05:45:06;;;;;;;13.73;6.10;;;;;;;-145.18;100.00;46627.19;4973589;28;20079;-78
2022/06/14 05:47:39;;;;;;;13.63;4.70;;;;;;;-145.18;100.00;46623.28;4973565;28;20118;-78
2022/06/14 05:50:11;;;;;;;15.10;4.97;;;;;;;-145.18;100.00;46627.19;4974020;28;20107;-79
2022/06/14 05:52:45;;;;;;;11.33;4.50;;;;;;;-145.18;100.00;46629.13;4973648;28;20038;-78
2022/06/14 05:55:23;;;;;;;16.20;5.33;;;;;;;-145.18;100.00;46627.19;4972504;28;20031;-78
2022/06/14 05:57:55;;;;;;;11.27;4.67;;;;;;;-145.18;100.00;46629.13;4972970;28;20046;-79
2022/06/14 06:00:37;;;;;;;16.00;5.00;;;;;;;-145.18;100.00;46629.13;4973378;28;20039;-79
2022/06/14 06:03:06;;;;;;;14.47;5.10;;;;;;;-145.18;100.00;46631.09;4972666;28;20499;-79
2022/06/14 06:05:47;;;;;;;12.43;4.63;;;;;;;-145.18;100.00;46633.06;5011968;28;20065;-79
2022/06/14 06:08:26;;;;;;;16.37;5.47;;;;;;;-145.18;100.00;46631.09;5011690;28;20152;-79
2022/06/14 06:10:55;;;;;;;11.67;4.90;;;;;;;-145.18;100.00;46629.13;5012384;28;20033;-79
2022/06/14 06:13:32;;;;;;;15.27;5.07;;;;;;;-145.18;100.00;46635.00;4998816;28;20169;-79
2022/06/14 06:16:10;;;;;;;11.60;4.17;;;;;;;-145.18;100.00;46633.06;4972647;28;20030;-79
2022/06/14 06:18:47;;;;;;;13.63;4.37;;;;;;;-145.18;100.00;46638.91;4972202;28;20027;-80
2022/06/14 06:21:34;;;;;;;8.97;4.13;;;;;;;-145.18;100.00;46636.94;4973316;28;20038;-79
2022/06/14 06:24:31;;;;;;;10.47;3.83;;;;;;;-145.18;100.00;46646.72;4972621;28;20033;-80
2022/06/14 06:27:03;;;;;;;12.37;4.13;;;;;;;-145.18;100.00;46648.69;4973037;28;20035;-80
2022/06/14 06:29:39;;;;;;;11.87;4.87;;;;;;;-145.18;100.00;46648.69;4972633;28;20042;-80
2022/06/14 06:32:06;;;;;;;13.37;4.63;;;;;;;-145.18;100.00;46652.59;4972980;28;20546;-80
2022/06/14 06:34:33;;;;;;;15.40;4.27;;;;;;;-145.18;100.00;46656.50;4972583;28;20459;-80
2022/06/14 06:37:21;;;;;;;9.27;4.17;;;;;;;-145.18;100.00;46658.44;4973114;28;20468;-80
2022/06/14 06:40:04;;;;;;;14.10;4.40;;;;;;;-145.18;100.00;46638.91;4972667;28;20050;-80
2022/06/14 06:42:32;;;;;;;21.97;5.70;;;;;;;-145.18;100.00;46625.22;4972950;28;20066;-80
2022/06/14 06:45:01;;;;;;;10.40;4.07;;;;;;;-145.18;100.00;46617.41;4972613;28;20027;-80
2022/06/14 06:47:52;;;;;;;11.50;4.20;;;;;;;-145.18;100.00;46578.34;4973324;28;20603;-81
2022/06/14 06:50:27;;;;;;;12.00;3.40;;;;;;;-145.18;100.00;46529.53;4965299;28;20492;-80
2022/06/14 06:53:03;;;;;;;12.17;3.20;;;;;;;-145.18;100.00;46547.09;4972423;28;20030;-80
2022/06/14 06:55:36;;;;;;;11.40;3.70;;;;;;;-145.18;100.00;46547.09;4972588;28;20030;-80
2022/06/14 06:58:11;;;;;;;5.23;3.00;;;;;;;-145.18;100.00;46558.81;4972079;28;20035;-80
2022/06/14 07:00:39;;;;;;;9.75;3.25;;;;;;;-145.18;100.00;46568.59;4973046;28;20062;-80
2022/06/14 07:03:24;;;;;;;8.23;3.07;;;;;;;-145.18;100.00;46568.59;4971728;28;20138;-80
2022/06/14 07:05:58;;;;;;;7.47;2.83;;;;;;;-145.18;100.00;46558.81;4972413;28;20085;-79
2022/06/14 07:08:37;;;;;;;7.27;2.43;;;;;;;-145.18;100.00;46570.53;4971494;28;20666;-80
2022/06/14 07:11:04;;;;;;;7.57;2.70;;;;;;;-145.18;100.00;46576.41;4972395;28;20450;-81
2022/06/14 07:13:55;;;;;;;6.90;2.73;;;;;;;-145.18;100.00;46590.06;4972150;28;20077;-81
2022/06/14 07:16:33;;;;;;;9.90;2.43;;;;;;;-145.18;100.00;46609.59;4965269;28;20039;-81
2022/06/14 07:19:23;;;;;;;6.83;2.50;;;;;;;-145.18;100.00;46611.56;4971681;28;20476;-81
2022/06/14 07:21:57;;;;;;;12.27;3.70;;;;;;;-145.18;100.00;46613.50;4972240;28;20062;-81
2022/06/14 07:24:31;;;;;;;7.27;2.87;;;;;;;-145.18;100.00;46635.00;4971888;28;20357;-81
2022/06/14 07:27:11;;;;;;;8.37;2.33;;;;;;;-145.18;100.00;46636.94;4972181;28;20368;-81
2022/06/14 07:29:44;;;;;;;5.97;2.03;;;;;;;-145.18;100.00;46640.88;4971658;28;20042;-81
2022/06/14 07:32:30;;;;;;;8.47;2.20;;;;;;;-145.18;100.00;46638.91;4972011;28;20015;-81
2022/06/14 07:34:56;;;;;;;6.80;1.87;;;;;;;-145.18;100.00;46664.31;4971582;28;20067;-81
2022/06/14 07:37:29;;;;;;;6.33;1.77;;;;;;;-145.18;100.00;46672.13;4972183;28;20050;-81
2022/06/14 07:39:59;;;;;;;9.63;1.83;;;;;;;-145.18;100.00;46756.09;4971473;28;20043;-80
2022/06/14 07:42:36;;;;;;;6.97;1.80;;;;;;;-145.18;100.00;46804.94;4971950;28;20081;-81
2022/06/14 07:45:15;;;;;;;7.30;1.70;;;;;;;-145.18;100.00;46939.72;4971804;28;20031;-81
2022/06/14 07:48:05;;;;;;;12.03;2.20;;;;;;;-145.18;100.00;47238.63;4972214;28;20031;-81
2022/06/14 07:50:35;;;;;;;4.97;2.30;;;;;;;-145.18;100.00;46951.44;4971139;28;20047;-81
2022/06/14 07:53:29;;;;;;;10.63;3.40;;;;;;;-145.18;100.00;47154.63;4971172;28;20062;-81
2022/06/14 07:56:01;;;;;;;6.67;2.83;;;;;;;-145.18;100.00;47060.84;4971660;28;20058;-81
2022/06/14 07:58:45;;;;;;;6.13;2.50;;;;;;;-145.18;100.00;46707.28;4971316;28;20106;-81
2022/06/14 08:01:17;;;;;;;7.47;1.90;;;;;;;-145.18;100.00;47158.53;4971659;28;20023;-81
2022/06/14 08:04:04;;;;;;;10.73;1.93;;;;;;;-145.18;100.00;47334.34;4971380;28;20062;-81
2022/06/14 08:06:42;;;;;;;10.20;2.50;;;;;;;-145.18;100.00;47318.72;4971603;28;20035;-82
2022/06/14 08:09:16;;;;;;;6.90;2.00;;;;;;;-145.18;100.00;47289.41;4970998;28;20109;-82
2022/06/14 08:11:47;;;;;;;6.93;2.40;;;;;;;-145.18;100.00;47279.66;4972034;28;20613;-82
2022/06/14 08:14:35;;;;;;;10.63;2.30;;;;;;;-145.18;100.00;47310.91;4970922;28;20078;-81
2022/06/14 08:17:02;;;;;;;10.07;2.47;;;;;;;-145.18;100.00;47267.94;4942152;28;20650;-82
2022/06/14 08:19:36;;;;;;;9.07;2.27;;;;;;;-145.18;100.00;47305.06;4972218;28;20384;-82
2022/06/14 08:22:06;;;;;;;9.70;2.30;;;;;;;-145.18;100.00;47246.44;4975384;28;20475;-82
2022/06/14 08:24:46;;;;;;;9.40;2.70;;;;;;;-145.18;100.00;47283.56;4975226;28;20082;-83
2022/06/14 08:27:18;;;;;;;7.83;2.40;;;;;;;-145.18;100.00;47307.00;4975510;28;20038;-82
2022/06/14 08:29:49;;;;;;;5.07;2.00;;;;;;;-145.18;100.00;47211.28;4974931;28;20031;-82
2022/06/14 08:32:33;;;;;;;5.40;1.97;;;;;;;-145.18;100.00;47232.75;4975226;28;20046;-82
2022/06/14 08:35:14;;;;;;;6.60;2.03;;;;;;;-145.18;100.00;47223.00;4974968;28;20169;-82
2022/06/14 08:37:48;;;;;;;11.83;2.17;;;;;;;-145.18;100.00;47269.88;4975403;28;20484;-82
2022/06/14 08:40:46;;;;;;;9.83;2.57;;;;;;;-145.18;100.00;47195.66;4974720;28;20546;-82
2022/06/14 08:43:19;;;;;;;7.87;2.13;;;;;;;-145.18;100.00;47215.19;4974577;28;20053;-82
2022/06/14 08:46:16;;;;;;;5.60;2.00;;;;;;;-145.18;100.00;47213.22;4975318;28;20066;-82
2022/06/14 08:49:10;;;;;;;7.60;2.07;;;;;;;-145.18;100.00;47183.94;4974868;28;20109;-83
2022/06/14 08:52:14;;;;;;;5.73;1.70;;;;;;;-145.18;100.00;47185.88;4967278;28;20372;-82
2022/06/14 08:54:39;;;;;;;8.63;1.67;;;;;;;-145.18;100.00;47164.38;4974411;28;20511;-83
2022/06/14 08:57:26;;;;;;;5.87;1.60;;;;;;;-145.18;100.00;47156.56;4974687;28;20073;-83
2022/06/14 09:00:04;;;;;;;6.80;1.70;;;;;;;-145.18;100.00;47176.09;4974656;28;20045;-83
2022/06/14 09:02:58;;;;;;;6.17;1.80;;;;;;;-145.18;100.00;47156.56;4974973;28;20037;-83
2022/06/14 09:06:01;;;;;;;6.27;1.60;;;;;;;-145.18;100.00;47152.66;4974848;28;20074;-83
2022/06/14 09:08:47;;;;;;;5.47;1.60;;;;;;;-145.18;100.00;47137.03;4974483;28;20376;-83
2022/06/14 09:12:04;;;;;;;7.07;2.40;;;;;;;-145.18;100.00;47156.56;4974925;28;20039;-83
2022/06/14 09:14:52;;;;;;;4.90;1.73;;;;;;;-145.18;100.00;47148.75;4949155;28;20503;-83
2022/06/14 09:17:55;;;;;;;4.40;1.60;;;;;;;-145.18;100.00;47152.66;4974769;28;20038;-82
2022/06/14 09:20:38;;;;;;;5.67;1.53;;;;;;;-145.18;100.00;47133.13;4974295;28;20522;-83
2022/06/14 09:23:29;;;;;;;8.23;1.90;;;;;;;-145.18;100.00;47152.66;4974417;28;20031;-83
2022/06/14 09:26:24;;;;;;;3.40;1.70;;;;;;;-145.18;100.00;47166.34;4974519;28;20050;-83
2022/06/14 09:29:07;;;;;;;5.73;1.57;;;;;;;-145.18;100.00;47156.56;4947448;28;20451;-83
2022/06/14 09:32:19;;;;;;;7.50;1.60;;;;;;;-145.18;100.00;47142.91;4974198;28;20046;-83
2022/06/14 09:34:59;;;;;;;7.10;1.43;;;;;;;-145.18;100.00;47150.72;4973898;28;20086;-83
2022/06/14 09:37:51;;;;;;;5.97;1.60;;;;;;;-145.18;100.00;47113.59;4974545;28;20047;-84
2022/06/14 09:40:46;;;;;;;5.83;1.63;;;;;;;-145.18;100.00;47119.47;4974055;28;20026;-84
2022/06/14 09:43:44;;;;;;;4.03;1.50;;;;;;;-145.18;100.00;47101.88;4974227;28;20644;-83
2022/06/14 09:46:43;;;;;;;5.03;2.10;;;;;;;-145.18;100.00;47103.81;4975316;28;20130;-83
2022/06/14 09:49:28;;;;;;;6.17;1.70;;;;;;;-145.18;100.00;47094.06;4973800;28;20492;-83
2022/06/14 09:52:10;;;;;;;4.03;1.63;;;;;;;-145.18;100.00;47101.88;4974147;28;20042;-83
2022/06/14 09:54:57;;;;;;;6.07;1.70;;;;;;;-145.18;100.00;47084.28;4974378;28;20062;-84
2022/06/14 09:58:00;;;;;;;5.27;1.70;;;;;;;-145.18;100.00;47078.44;4974592;28;20043;-84
2022/06/14 10:00:48;;;;;;;5.03;1.93;;;;;;;-145.18;100.00;47076.47;4974325;28;20093;-83
2022/06/14 10:03:42;;;;;;;3.97;1.57;;;;;;;-145.18;100.00;47066.72;4974010;28;20085;-83
2022/06/14 10:06:27;;;;;;;3.60;1.70;;;;;;;-145.18;100.00;47062.81;4974452;28;20035;-84
2022/06/14 10:09:26;;;;;;;7.63;2.25;;;;;;;-145.18;100.00;47074.53;4973545;28;20494;-84
2022/06/14 10:12:13;;;;;;;4.07;1.73;;;;;;;-145.18;100.00;47066.72;4973996;28;20118;-84
2022/06/14 10:14:53;;;;;;;4.07;1.70;;;;;;;-145.18;100.00;47045.22;4973621;28;20066;-84
2022/06/14 10:17:40;;;;;;;3.70;1.77;;;;;;;-145.18;100.00;47037.41;4973900;28;20126;-84
2022/06/14 10:20:39;;;;;;;3.67;1.80;;;;;;;-145.18;100.00;47035.44;4973432;28;20039;-85
2022/06/14 10:23:17;;;;;;;4.90;1.97;;;;;;;-145.18;100.00;47033.50;4973829;28;20030;-86
2022/06/14 10:28:52;;;;;;;6.50;2.00;;;;;;;-145.18;100.00;47043.28;4973371;28;20069;-86
2022/06/14 10:31:40;;;;;;;5.33;2.00;;;;;;;-145.18;100.00;47086.25;4973407;28;20026;-85
2022/06/14 10:34:06;;;;;;;6.30;1.80;;;;;;;-145.18;100.00;47115.56;4972272;28;20037;-84
2022/06/14 10:36:48;;;;;;;3.47;1.40;;;;;;;-145.18;100.00;47060.84;4973773;28;20364;-88
2022/06/14 10:39:40;;;;;;;6.43;1.80;;;;;;;-145.18;100.00;47029.59;4973604;28;20031;-87
2022/06/14 10:42:21;;;;;;;5.63;1.70;;;;;;;-145.18;100.00;47053.03;4971030;28;20399;-87
2022/06/14 10:45:04;;;;;;;4.47;1.70;;;;;;;-145.18;100.00;47047.19;4973227;28;20034;-86
2022/06/14 10:47:42;;;;;;;5.10;1.97;;;;;;;-145.18;100.00;47023.72;4973356;28;20031;-86
2022/06/14 10:50:17;;;;;;;6.80;2.20;;;;;;;-145.18;100.00;47012.00;4972875;28;20034;-86
2022/06/14 10:53:02;;;;;;;6.95;2.05;;;;;;;-145.18;100.00;47019.81;4972957;28;20089;-87
2022/06/14 10:55:30;;;;;;;5.43;1.95;;;;;;;-145.18;100.00;47060.84;4972712;28;20031;-86
2022/06/14 10:58:21;;;;;;;4.90;2.13;;;;;;;-145.18;100.00;47076.47;4972993;28;20038;-87
2022/06/14 11:01:31;;;;;;;4.50;2.00;;;;;;;-145.18;100.00;47074.53;4973057;28;20033;-86
2022/06/14 11:04:05;;;;;;;4.57;2.03;;;;;;;-145.18;100.00;47060.84;4972220;28;20039;-88
2022/06/14 11:06:52;;;;;;;3.90;2.00;;;;;;;-145.18;100.00;47035.44;4972986;28;20560;-88
2022/06/14 11:09:35;;;;;;;3.83;2.10;;;;;;;-145.18;100.00;47035.44;4972892;28;20038;-87
2022/06/14 11:12:29;;;;;;;4.57;2.00;;;;;;;-145.18;100.00;47117.50;4974997;28;20496;-89
2022/06/14 11:15:00;;;;;;;6.93;2.27;;;;;;;-145.18;100.00;47140.94;4972575;28;20093;-88
2022/06/14 11:18:14;;;;;;;3.53;1.97;;;;;;;-145.18;100.00;47062.81;4972745;28;20038;-87
2022/06/14 11:20:50;;;;;;;4.50;1.77;;;;;;;-145.18;100.00;47105.78;4969213;28;20039;-86
2022/06/14 11:23:21;;;;;;;6.33;2.30;;;;;;;-145.18;100.00;47109.69;4973108;28;20026;-88
2022/06/14 11:26:06;;;;;;;4.87;2.27;;;;;;;-145.18;100.00;47133.13;4972779;28;20033;-86
2022/06/14 11:28:43;;;;;;;7.17;2.73;;;;;;;-145.18;100.00;47115.56;4974640;28;20042;-86
2022/06/14 11:31:24;;;;;;;8.90;2.07;;;;;;;-145.18;100.00;47055.00;4974058;28;20340;-87
2022/06/14 11:34:14;;;;;;;6.23;2.20;;;;;;;-145.18;100.00;47000.28;4973252;28;20045;-87
2022/06/14 11:36:58;;;;;;;6.07;2.20;;;;;;;-145.18;100.00;46992.47;4977445;28;20046;-87
2022/06/14 11:39:48;;;;;;;6.10;2.47;;;;;;;-145.18;100.00;46994.44;4973490;28;20067;-87
2022/06/14 11:42:25;;;;;;;5.57;2.03;;;;;;;-145.18;100.00;47066.72;4973762;28;20030;-87
2022/06/14 11:45:19;;;;;;;6.53;2.07;;;;;;;-145.18;100.00;47002.25;4973981;28;20471;-87
2022/06/14 11:47:51;;;;;;;7.60;2.10;;;;;;;-145.18;100.00;46992.47;4973757;28;20114;-88
2022/06/14 11:50:32;;;;;;;4.53;1.83;;;;;;;-145.18;100.00;46992.47;4972546;28;20062;-87
2022/06/14 11:53:16;;;;;;;4.43;2.23;;;;;;;-145.18;100.00;46986.63;4972113;28;20034;-87
2022/06/14 11:56:03;;;;;;;6.13;1.90;;;;;;;-145.18;100.00;46976.84;4971883;28;20027;-86
2022/06/14 11:58:42;;;;;;;6.90;2.57;;;;;;;-145.18;100.00;46971.00;4972643;28;20030;-87
2022/06/14 12:01:10;;;;;;;5.87;2.00;;;;;;;-145.18;91.54;46980.75;4971944;28;20042;-88
2022/06/14 12:04:12;;;;;;;4.30;2.10;;;;;;;-145.18;97.42;46988.56;4971944;28;20123;-87
2022/06/14 12:06:56;;;;;;;10.07;2.30;;;;;;;-145.18;96.14;46976.84;4972865;28;20081;-86
2022/06/14 12:09:38;;;;;;;4.73;2.00;;;;;;;-145.18;91.05;46965.13;4971382;28;20105;-88
2022/06/14 12:12:31;;;;;;;4.87;2.00;;;;;;;-145.18;96.78;46959.25;4972063;28;20110;-86